QFA2012 WIII-AYPY
Flight info
| Callsign | QFA2012 |
|---|---|
| Flight time | 5h 36m |
| Altitude | 37000 |
| Route | CA T5 BIMAK W52 MKS/N0478F390 A215 ASIXA H777 EPKED H778 SAKTO SAKTO1 |
| Aircraft | A333/H-SDE3GHIJ2J3J5M1RVWXY/LB2D1 |
Departure
| Time | 2026-04-25 10:07 |
|---|---|
| Airport | Soekarno-Hatta International Airport (WIII) |
Arrival
| Time | 2026-04-25 15:43 |
|---|---|
| Airport | Port Moresby Jacksons International Airport (AYPY) |
| Time | Latitude | Longitude | Altitude | Speed | Heading |
|---|---|---|---|---|---|
| 2026-04-25 09:27 | -6.11797 | 106.66387 | 36 ft | 0 kts | 157° |
| 2026-04-25 09:52 | -6.11784 | 106.66381 | 36 ft | 4 kts | 154° |
| 2026-04-25 09:52 | -6.11760 | 106.66368 | 36 ft | 4 kts | 145° |
| 2026-04-25 09:52 | -6.11739 | 106.66351 | 35 ft | 4 kts | 135° |
| 2026-04-25 09:52 | -6.11721 | 106.66331 | 36 ft | 4 kts | 121° |
| 2026-04-25 09:53 | -6.11711 | 106.66307 | 36 ft | 4 kts | 92° |
| 2026-04-25 09:53 | -6.11712 | 106.66293 | 35 ft | 0 kts | 68° |
| 2026-04-25 09:56 | -6.11711 | 106.66295 | 36 ft | 2 kts | 68° |
| 2026-04-25 09:56 | -6.11694 | 106.66337 | 36 ft | 10 kts | 68° |
| 2026-04-25 09:56 | -6.11679 | 106.66375 | 36 ft | 0 kts | 68° |
| 2026-04-25 09:57 | -6.11675 | 106.66383 | 36 ft | 2 kts | 68° |
| 2026-04-25 09:57 | -6.11670 | 106.66397 | 36 ft | 5 kts | 68° |
| 2026-04-25 09:57 | -6.11666 | 106.66408 | 36 ft | 0 kts | 68° |
| 2026-04-25 09:57 | -6.11665 | 106.66408 | 36 ft | 0 kts | 68° |
| 2026-04-25 09:58 | -6.11659 | 106.66410 | 36 ft | 1 kts | 29° |
| 2026-04-25 09:58 | -6.11625 | 106.66401 | 36 ft | 10 kts | 339° |
| 2026-04-25 09:58 | -6.11560 | 106.66375 | 36 ft | 10 kts | 339° |
| 2026-04-25 09:59 | -6.11492 | 106.66349 | 36 ft | 10 kts | 339° |
| 2026-04-25 09:59 | -6.11423 | 106.66322 | 36 ft | 11 kts | 339° |
| 2026-04-25 09:59 | -6.11360 | 106.66283 | 36 ft | 10 kts | 301° |
| 2026-04-25 09:59 | -6.11366 | 106.66220 | 36 ft | 9 kts | 250° |
| 2026-04-25 10:00 | -6.11402 | 106.66124 | 36 ft | 19 kts | 249° |
| 2026-04-25 10:00 | -6.11454 | 106.65997 | 34 ft | 20 kts | 248° |
| 2026-04-25 10:00 | -6.11508 | 106.65861 | 31 ft | 21 kts | 248° |
| 2026-04-25 10:00 | -6.11562 | 106.65723 | 32 ft | 21 kts | 249° |
| 2026-04-25 10:01 | -6.11615 | 106.65590 | 32 ft | 21 kts | 248° |
| 2026-04-25 10:01 | -6.11668 | 106.65459 | 35 ft | 19 kts | 248° |
| 2026-04-25 10:01 | -6.11715 | 106.65341 | 38 ft | 17 kts | 248° |
| 2026-04-25 10:01 | -6.11760 | 106.65230 | 39 ft | 17 kts | 248° |
| 2026-04-25 10:02 | -6.11804 | 106.65117 | 40 ft | 18 kts | 248° |
| 2026-04-25 10:02 | -6.11848 | 106.65006 | 41 ft | 17 kts | 248° |
| 2026-04-25 10:02 | -6.11892 | 106.64895 | 40 ft | 17 kts | 248° |
| 2026-04-25 10:02 | -6.11938 | 106.64781 | 41 ft | 17 kts | 247° |
| 2026-04-25 10:03 | -6.11982 | 106.64672 | 42 ft | 16 kts | 248° |
| 2026-04-25 10:03 | -6.12026 | 106.64565 | 41 ft | 17 kts | 248° |
| 2026-04-25 10:03 | -6.12070 | 106.64450 | 40 ft | 18 kts | 249° |
| 2026-04-25 10:03 | -6.12113 | 106.64338 | 41 ft | 17 kts | 248° |
| 2026-04-25 10:04 | -6.12158 | 106.64227 | 41 ft | 17 kts | 248° |
| 2026-04-25 10:04 | -6.12204 | 106.64114 | 40 ft | 17 kts | 248° |
| 2026-04-25 10:04 | -6.12247 | 106.64007 | 44 ft | 16 kts | 249° |
| 2026-04-25 10:04 | -6.12243 | 106.63909 | 46 ft | 13 kts | 303° |
| 2026-04-25 10:05 | -6.12163 | 106.63886 | 45 ft | 13 kts | 19° |
| 2026-04-25 10:05 | -6.12088 | 106.63942 | 41 ft | 14 kts | 52° |
| 2026-04-25 10:05 | -6.12068 | 106.63980 | 41 ft | 0 kts | 66° |
| 2026-04-25 10:05 | -6.12067 | 106.63982 | 41 ft | 1 kts | 66° |
| 2026-04-25 10:06 | -6.12067 | 106.63983 | 41 ft | 2 kts | 66° |
| 2026-04-25 10:06 | -6.11987 | 106.64165 | 41 ft | 58 kts | 67° |
| 2026-04-25 10:06 | -6.11769 | 106.64721 | 43 ft | 111 kts | 68° |
| 2026-04-25 10:06 | -6.11421 | 106.65589 | 36 ft | 156 kts | 68° |
| 2026-04-25 10:07 | -6.11008 | 106.66660 | 423 ft | 166 kts | 65° |
| 2026-04-25 10:07 | -6.10458 | 106.67684 | 1008 ft | 170 kts | 56° |
| 2026-04-25 10:07 | -6.09694 | 106.68580 | 1728 ft | 168 kts | 47° |
| 2026-04-25 10:07 | -6.09031 | 106.69455 | 2291 ft | 148 kts | 53° |
| 2026-04-25 10:08 | -6.08398 | 106.70192 | 2497 ft | 137 kts | 41° |
| 2026-04-25 10:08 | -6.07640 | 106.70895 | 2650 ft | 155 kts | 46° |
| 2026-04-25 10:08 | -6.06883 | 106.71727 | 2801 ft | 174 kts | 50° |
| 2026-04-25 10:08 | -6.06013 | 106.72642 | 2970 ft | 190 kts | 49° |
| 2026-04-25 10:09 | -6.05058 | 106.73663 | 3130 ft | 211 kts | 48° |
| 2026-04-25 10:09 | -6.03988 | 106.74805 | 3317 ft | 234 kts | 49° |
| 2026-04-25 10:09 | -6.02821 | 106.76035 | 3701 ft | 244 kts | 49° |
| 2026-04-25 10:09 | -6.01620 | 106.77295 | 4075 ft | 256 kts | 48° |
| 2026-04-25 10:10 | -6.00380 | 106.78584 | 4582 ft | 262 kts | 44° |
| 2026-04-25 10:10 | -5.99080 | 106.79879 | 5168 ft | 262 kts | 47° |
| 2026-04-25 10:10 | -5.97884 | 106.81258 | 5794 ft | 265 kts | 62° |
| 2026-04-25 10:10 | -5.97481 | 106.83035 | 6479 ft | 263 kts | 95° |
| 2026-04-25 10:11 | -5.98000 | 106.84814 | 7096 ft | 271 kts | 110° |
| 2026-04-25 10:11 | -5.98747 | 106.86552 | 7790 ft | 271 kts | 111° |
| 2026-04-25 10:11 | -5.99481 | 106.88312 | 8406 ft | 275 kts | 110° |
| 2026-04-25 10:11 | -6.00172 | 106.90092 | 9051 ft | 279 kts | 109° |
| 2026-04-25 10:12 | -6.00847 | 106.91930 | 9703 ft | 280 kts | 108° |
| 2026-04-25 10:12 | -6.01512 | 106.93816 | 10213 ft | 289 kts | 107° |
| 2026-04-25 10:12 | -6.02920 | 106.97854 | 10739 ft | 323 kts | 107° |
| 2026-04-25 10:13 | -6.03666 | 107.00010 | 10979 ft | 338 kts | 108° |
| 2026-04-25 10:13 | -6.04456 | 107.02301 | 11186 ft | 353 kts | 108° |
| 2026-04-25 10:13 | -6.05273 | 107.04673 | 11412 ft | 365 kts | 107° |
| 2026-04-25 10:13 | -6.06110 | 107.07112 | 11756 ft | 372 kts | 108° |
| 2026-04-25 10:14 | -6.06952 | 107.09576 | 12202 ft | 375 kts | 108° |
| 2026-04-25 10:14 | -6.07806 | 107.12071 | 12680 ft | 378 kts | 108° |
| 2026-04-25 10:14 | -6.08671 | 107.14580 | 13129 ft | 382 kts | 108° |
| 2026-04-25 10:14 | -6.09531 | 107.17080 | 13619 ft | 383 kts | 109° |
| 2026-04-25 10:15 | -6.10526 | 107.19588 | 14005 ft | 387 kts | 111° |
| 2026-04-25 10:15 | -6.11603 | 107.22078 | 14377 ft | 390 kts | 112° |
| 2026-04-25 10:15 | -6.12705 | 107.24589 | 14768 ft | 393 kts | 112° |
| 2026-04-25 10:15 | -6.13810 | 107.27104 | 15144 ft | 394 kts | 112° |
| 2026-04-25 10:16 | -6.14920 | 107.29646 | 15474 ft | 398 kts | 112° |
| 2026-04-25 10:16 | -6.16027 | 107.32179 | 15882 ft | 401 kts | 112° |
| 2026-04-25 10:16 | -6.17152 | 107.34754 | 16242 ft | 404 kts | 112° |
| 2026-04-25 10:16 | -6.18286 | 107.37350 | 16607 ft | 407 kts | 112° |
| 2026-04-25 10:17 | -6.19428 | 107.39964 | 16975 ft | 409 kts | 112° |
| 2026-04-25 10:17 | -6.20575 | 107.42594 | 17376 ft | 411 kts | 112° |
| 2026-04-25 10:17 | -6.21734 | 107.45243 | 17717 ft | 414 kts | 112° |
| 2026-04-25 10:17 | -6.22895 | 107.47904 | 18017 ft | 417 kts | 113° |
| 2026-04-25 10:18 | -6.24070 | 107.50587 | 18344 ft | 419 kts | 112° |
| 2026-04-25 10:18 | -6.25238 | 107.53278 | 18681 ft | 419 kts | 112° |
| 2026-04-25 10:18 | -6.26404 | 107.55969 | 18930 ft | 422 kts | 112° |
| 2026-04-25 10:18 | -6.27584 | 107.58683 | 19180 ft | 425 kts | 112° |
| 2026-04-25 10:19 | -6.28773 | 107.61415 | 19437 ft | 427 kts | 112° |
| 2026-04-25 10:19 | -6.29948 | 107.64123 | 19770 ft | 428 kts | 112° |
| 2026-04-25 10:19 | -6.31164 | 107.66905 | 20105 ft | 429 kts | 112° |
| 2026-04-25 10:19 | -6.32347 | 107.69620 | 20354 ft | 431 kts | 112° |
| 2026-04-25 10:20 | -6.33554 | 107.72401 | 20628 ft | 433 kts | 113° |
| 2026-04-25 10:20 | -6.34767 | 107.75194 | 20863 ft | 435 kts | 112° |
| 2026-04-25 10:20 | -6.35984 | 107.77988 | 21185 ft | 437 kts | 112° |
| 2026-04-25 10:20 | -6.37206 | 107.80806 | 21549 ft | 439 kts | 113° |
| 2026-04-25 10:21 | -6.38434 | 107.83626 | 21860 ft | 441 kts | 113° |
| 2026-04-25 10:21 | -6.39670 | 107.86460 | 22078 ft | 444 kts | 113° |
| 2026-04-25 10:21 | -6.40912 | 107.89316 | 22363 ft | 446 kts | 112° |
| 2026-04-25 10:21 | -6.42132 | 107.92135 | 22715 ft | 444 kts | 113° |
| 2026-04-25 10:22 | -6.43374 | 107.94992 | 22882 ft | 448 kts | 112° |
| 2026-04-25 10:22 | -6.44222 | 107.96937 | 23034 ft | 451 kts | 113° |
| 2026-04-25 10:22 | -6.45895 | 108.00788 | 23377 ft | 453 kts | 113° |
| 2026-04-25 10:22 | -6.47159 | 108.03700 | 23630 ft | 454 kts | 113° |
| 2026-04-25 10:23 | -6.48423 | 108.06612 | 23876 ft | 456 kts | 113° |
| 2026-04-25 10:23 | -6.49698 | 108.09540 | 24098 ft | 458 kts | 114° |
| 2026-04-25 10:23 | -6.50976 | 108.12479 | 24262 ft | 459 kts | 113° |
| 2026-04-25 10:23 | -6.52260 | 108.15443 | 24337 ft | 464 kts | 113° |
| 2026-04-25 10:24 | -6.53532 | 108.18396 | 24632 ft | 464 kts | 113° |
| 2026-04-25 10:24 | -6.54821 | 108.21377 | 24882 ft | 465 kts | 113° |
| 2026-04-25 10:24 | -6.56121 | 108.24370 | 25089 ft | 467 kts | 113° |
| 2026-04-25 10:24 | -6.57422 | 108.27370 | 25286 ft | 468 kts | 113° |
| 2026-04-25 10:25 | -6.58733 | 108.30382 | 25528 ft | 469 kts | 114° |
| 2026-04-25 10:25 | -6.60036 | 108.33387 | 25766 ft | 469 kts | 113° |
| 2026-04-25 10:25 | -6.61342 | 108.36409 | 25942 ft | 472 kts | 114° |
| 2026-04-25 10:25 | -6.62660 | 108.39459 | 26101 ft | 474 kts | 114° |
| 2026-04-25 10:26 | -6.63976 | 108.42503 | 26364 ft | 475 kts | 114° |
| 2026-04-25 10:26 | -6.65292 | 108.45548 | 26678 ft | 474 kts | 114° |
| 2026-04-25 10:26 | -6.66594 | 108.48553 | 26895 ft | 475 kts | 113° |
| 2026-04-25 10:26 | -6.67866 | 108.51641 | 27043 ft | 478 kts | 110° |
| 2026-04-25 10:27 | -6.68790 | 108.54865 | 27213 ft | 480 kts | 102° |
| 2026-04-25 10:27 | -6.69200 | 108.58196 | 27460 ft | 481 kts | 93° |
| 2026-04-25 10:27 | -6.69174 | 108.60429 | 27575 ft | 483 kts | 87° |
| 2026-04-25 10:27 | -6.68879 | 108.63813 | 27733 ft | 485 kts | 85° |
| 2026-04-25 10:28 | -6.68318 | 108.68282 | 28005 ft | 488 kts | 83° |
| 2026-04-25 10:28 | -6.67844 | 108.71664 | 28215 ft | 488 kts | 83° |
| 2026-04-25 10:28 | -6.67517 | 108.73950 | 28349 ft | 489 kts | 83° |
| 2026-04-25 10:28 | -6.67044 | 108.77303 | 28451 ft | 490 kts | 83° |
| 2026-04-25 10:29 | -6.66577 | 108.80701 | 28634 ft | 491 kts | 83° |
| 2026-04-25 10:29 | -6.66117 | 108.84116 | 28796 ft | 492 kts | 83° |
| 2026-04-25 10:29 | -6.65667 | 108.87523 | 28973 ft | 492 kts | 83° |
| 2026-04-25 10:29 | -6.65216 | 108.90942 | 29099 ft | 494 kts | 83° |
| 2026-04-25 10:30 | -6.64764 | 108.94374 | 29456 ft | 493 kts | 83° |
| 2026-04-25 10:30 | -6.64309 | 108.97782 | 29802 ft | 491 kts | 83° |
| 2026-04-25 10:30 | -6.63857 | 109.01188 | 30056 ft | 490 kts | 83° |
| 2026-04-25 10:30 | -6.63410 | 109.04584 | 30227 ft | 490 kts | 83° |
| 2026-04-25 10:31 | -6.62969 | 109.07937 | 30467 ft | 488 kts | 83° |
| 2026-04-25 10:31 | -6.62522 | 109.11335 | 30686 ft | 490 kts | 83° |
| 2026-04-25 10:31 | -6.62074 | 109.14724 | 31083 ft | 485 kts | 83° |
| 2026-04-25 10:31 | -6.61632 | 109.18078 | 31379 ft | 483 kts | 83° |
| 2026-04-25 10:32 | -6.61191 | 109.21431 | 31565 ft | 483 kts | 83° |
| 2026-04-25 10:32 | -6.60748 | 109.24792 | 31725 ft | 484 kts | 83° |
| 2026-04-25 10:32 | -6.60305 | 109.28151 | 31937 ft | 484 kts | 83° |
| 2026-04-25 10:32 | -6.59863 | 109.31493 | 32165 ft | 483 kts | 83° |
| 2026-04-25 10:33 | -6.59420 | 109.34842 | 32364 ft | 483 kts | 83° |
| 2026-04-25 10:33 | -6.58980 | 109.38192 | 32573 ft | 481 kts | 83° |
| 2026-04-25 10:33 | -6.58544 | 109.41501 | 32666 ft | 482 kts | 83° |
| 2026-04-25 10:33 | -6.58100 | 109.44854 | 32846 ft | 482 kts | 83° |
| 2026-04-25 10:34 | -6.57654 | 109.48197 | 33031 ft | 482 kts | 83° |
| 2026-04-25 10:34 | -6.57216 | 109.51531 | 33258 ft | 480 kts | 83° |
| 2026-04-25 10:34 | -6.56773 | 109.54863 | 33332 ft | 480 kts | 83° |
| 2026-04-25 10:35 | -6.55877 | 109.61550 | 33524 ft | 483 kts | 83° |
| 2026-04-25 10:35 | -6.55434 | 109.64852 | 33775 ft | 481 kts | 83° |
| 2026-04-25 10:35 | -6.54986 | 109.68204 | 33897 ft | 482 kts | 83° |
| 2026-04-25 10:35 | -6.54543 | 109.71543 | 34094 ft | 481 kts | 83° |
| 2026-04-25 10:36 | -6.54097 | 109.74883 | 34240 ft | 480 kts | 83° |
| 2026-04-25 10:36 | -6.53652 | 109.78211 | 34401 ft | 480 kts | 83° |
| 2026-04-25 10:36 | -6.53209 | 109.81539 | 34462 ft | 482 kts | 82° |
| 2026-04-25 10:37 | -6.52326 | 109.88207 | 34690 ft | 483 kts | 82° |
| 2026-04-25 10:37 | -6.51879 | 109.91564 | 34862 ft | 483 kts | 82° |
| 2026-04-25 10:37 | -6.51432 | 109.94912 | 35028 ft | 482 kts | 82° |
| 2026-04-25 10:37 | -6.50984 | 109.98262 | 35164 ft | 482 kts | 82° |
| 2026-04-25 10:38 | -6.50538 | 110.01595 | 35319 ft | 482 kts | 82° |
| 2026-04-25 10:38 | -6.50088 | 110.04946 | 35461 ft | 482 kts | 82° |
| 2026-04-25 10:38 | -6.49637 | 110.08248 | 35658 ft | 482 kts | 82° |
| 2026-04-25 10:38 | -6.49186 | 110.11585 | 35793 ft | 482 kts | 82° |
| 2026-04-25 10:39 | -6.48741 | 110.14923 | 35949 ft | 481 kts | 82° |
| 2026-04-25 10:39 | -6.48297 | 110.18262 | 36141 ft | 480 kts | 82° |
| 2026-04-25 10:39 | -6.47853 | 110.21596 | 36287 ft | 480 kts | 82° |
| 2026-04-25 10:40 | -6.46970 | 110.28216 | 36471 ft | 482 kts | 81° |
| 2026-04-25 10:40 | -6.46522 | 110.31556 | 36660 ft | 481 kts | 82° |
| 2026-04-25 10:40 | -6.46075 | 110.34886 | 36790 ft | 481 kts | 81° |
| 2026-04-25 10:41 | -6.45180 | 110.41549 | 36852 ft | 480 kts | 82° |
| 2026-04-25 10:41 | -6.44295 | 110.48229 | 36853 ft | 480 kts | 82° |
| 2026-04-25 10:42 | -6.43420 | 110.54810 | 36849 ft | 474 kts | 82° |
| 2026-04-25 10:42 | -6.42557 | 110.61367 | 36857 ft | 472 kts | 82° |
| 2026-04-25 10:43 | -6.41691 | 110.67897 | 36858 ft | 471 kts | 82° |
| 2026-04-25 10:43 | -6.40815 | 110.74325 | 36853 ft | 463 kts | 82° |
| 2026-04-25 10:44 | -6.40000 | 110.80837 | 36852 ft | 474 kts | 85° |
| 2026-04-25 10:44 | -6.39040 | 110.87482 | 36892 ft | 481 kts | 78° |
| 2026-04-25 10:45 | -6.38120 | 110.94089 | 36887 ft | 476 kts | 77° |
| 2026-04-25 10:45 | -6.37451 | 111.00508 | 36839 ft | 455 kts | 82° |
| 2026-04-25 10:46 | -6.36620 | 111.06861 | 36871 ft | 454 kts | 81° |
| 2026-04-25 10:46 | -6.36192 | 111.10031 | 36858 ft | 467 kts | 81° |
| 2026-04-25 10:46 | -6.35803 | 111.13297 | 36854 ft | 463 kts | 83° |
| 2026-04-25 10:46 | -6.35472 | 111.16462 | 36839 ft | 447 kts | 80° |
| 2026-04-25 10:47 | -6.34993 | 111.19534 | 36849 ft | 444 kts | 78° |
| 2026-04-25 10:47 | -6.34038 | 111.25640 | 36862 ft | 444 kts | 80° |
| 2026-04-25 10:47 | -6.33608 | 111.28757 | 36927 ft | 456 kts | 81° |
| 2026-04-25 10:48 | -6.33186 | 111.31907 | 36881 ft | 453 kts | 81° |
| 2026-04-25 10:48 | -6.32347 | 111.38203 | 36857 ft | 460 kts | 81° |
| 2026-04-25 10:49 | -6.31509 | 111.44631 | 36861 ft | 465 kts | 81° |
| 2026-04-25 10:49 | -6.30656 | 111.51113 | 36860 ft | 471 kts | 81° |
| 2026-04-25 10:50 | -6.29792 | 111.57660 | 36859 ft | 476 kts | 81° |
| 2026-04-25 10:50 | -6.28915 | 111.64256 | 36859 ft | 474 kts | 81° |
| 2026-04-25 10:51 | -6.28033 | 111.70824 | 36858 ft | 473 kts | 80° |
| 2026-04-25 10:51 | -6.27149 | 111.77403 | 36857 ft | 475 kts | 81° |
| 2026-04-25 10:52 | -6.26286 | 111.83936 | 36860 ft | 475 kts | 81° |
| 2026-04-25 10:52 | -6.25394 | 111.90519 | 36859 ft | 475 kts | 81° |
| 2026-04-25 10:53 | -6.24494 | 111.97078 | 36858 ft | 473 kts | 81° |
| 2026-04-25 10:53 | -6.23597 | 112.03658 | 36860 ft | 476 kts | 81° |
| 2026-04-25 10:54 | -6.22706 | 112.10219 | 36861 ft | 476 kts | 81° |
| 2026-04-25 10:54 | -6.21823 | 112.16815 | 36862 ft | 475 kts | 81° |
| 2026-04-25 10:55 | -6.20918 | 112.23380 | 36862 ft | 474 kts | 81° |
| 2026-04-25 10:55 | -6.20011 | 112.29961 | 36861 ft | 475 kts | 81° |
| 2026-04-25 10:56 | -6.19116 | 112.36501 | 36861 ft | 476 kts | 81° |
| 2026-04-25 10:56 | -6.18214 | 112.43094 | 36862 ft | 475 kts | 81° |
| 2026-04-25 10:57 | -6.17311 | 112.49664 | 36860 ft | 474 kts | 81° |
| 2026-04-25 10:57 | -6.16402 | 112.56237 | 36864 ft | 474 kts | 81° |
| 2026-04-25 10:58 | -6.15509 | 112.62751 | 36861 ft | 472 kts | 81° |
| 2026-04-25 10:58 | -6.14614 | 112.69289 | 36862 ft | 472 kts | 81° |
| 2026-04-25 10:59 | -6.13717 | 112.75866 | 36864 ft | 474 kts | 81° |
| 2026-04-25 10:59 | -6.12813 | 112.82417 | 36866 ft | 471 kts | 81° |
| 2026-04-25 11:00 | -6.11915 | 112.88900 | 36866 ft | 471 kts | 81° |
| 2026-04-25 11:00 | -6.11016 | 112.95417 | 36871 ft | 469 kts | 81° |
| 2026-04-25 11:01 | -6.10107 | 113.01936 | 36868 ft | 470 kts | 81° |
| 2026-04-25 11:01 | -6.09235 | 113.08421 | 36866 ft | 467 kts | 81° |
| 2026-04-25 11:02 | -6.08328 | 113.14881 | 36866 ft | 470 kts | 82° |
| 2026-04-25 11:02 | -6.07422 | 113.21365 | 36866 ft | 461 kts | 81° |
| 2026-04-25 11:03 | -6.06509 | 113.27752 | 36865 ft | 463 kts | 81° |
| 2026-04-25 11:03 | -6.05618 | 113.34208 | 36870 ft | 468 kts | 81° |
| 2026-04-25 11:04 | -6.04734 | 113.40673 | 36871 ft | 470 kts | 81° |
| 2026-04-25 11:04 | -6.03829 | 113.47181 | 36868 ft | 470 kts | 81° |
| 2026-04-25 11:05 | -6.02926 | 113.53684 | 36872 ft | 469 kts | 81° |
| 2026-04-25 11:05 | -6.02028 | 113.60162 | 36873 ft | 468 kts | 81° |
| 2026-04-25 11:06 | -6.01130 | 113.66590 | 36875 ft | 467 kts | 81° |
| 2026-04-25 11:06 | -6.00228 | 113.73057 | 36875 ft | 467 kts | 81° |
| 2026-04-25 11:07 | -5.99324 | 113.79544 | 36875 ft | 467 kts | 81° |
| 2026-04-25 11:07 | -5.98423 | 113.86016 | 36875 ft | 468 kts | 81° |
| 2026-04-25 11:08 | -5.97519 | 113.92485 | 36874 ft | 467 kts | 81° |
| 2026-04-25 11:08 | -5.96616 | 113.98910 | 36876 ft | 466 kts | 81° |
| 2026-04-25 11:09 | -5.95711 | 114.05363 | 36878 ft | 466 kts | 81° |
| 2026-04-25 11:09 | -5.94805 | 114.11830 | 36879 ft | 467 kts | 81° |
| 2026-04-25 11:10 | -5.93906 | 114.18236 | 36877 ft | 466 kts | 81° |
| 2026-04-25 11:10 | -5.92995 | 114.24694 | 36876 ft | 466 kts | 81° |
| 2026-04-25 11:11 | -5.92088 | 114.31141 | 36880 ft | 466 kts | 81° |
| 2026-04-25 11:11 | -5.91181 | 114.37595 | 36882 ft | 467 kts | 81° |
| 2026-04-25 11:12 | -5.90272 | 114.44055 | 36883 ft | 467 kts | 81° |
| 2026-04-25 11:12 | -5.89363 | 114.50516 | 36883 ft | 466 kts | 81° |
| 2026-04-25 11:13 | -5.88463 | 114.56891 | 36888 ft | 464 kts | 81° |
| 2026-04-25 11:13 | -5.87552 | 114.63324 | 36884 ft | 465 kts | 81° |
| 2026-04-25 11:14 | -5.86640 | 114.69753 | 36882 ft | 466 kts | 81° |
| 2026-04-25 11:14 | -5.85731 | 114.76189 | 36883 ft | 466 kts | 81° |
| 2026-04-25 11:15 | -5.84973 | 114.81564 | 36884 ft | 466 kts | 81° |
| 2026-04-25 11:15 | -5.84058 | 114.88009 | 36887 ft | 465 kts | 81° |
| 2026-04-25 11:16 | -5.82690 | 114.97655 | 36885 ft | 463 kts | 81° |
| 2026-04-25 11:16 | -5.81781 | 115.04065 | 36886 ft | 465 kts | 81° |
| 2026-04-25 11:17 | -5.80870 | 115.10466 | 36887 ft | 464 kts | 81° |
| 2026-04-25 11:17 | -5.79960 | 115.16885 | 36886 ft | 465 kts | 81° |
| 2026-04-25 11:18 | -5.79039 | 115.23313 | 36889 ft | 464 kts | 81° |
| 2026-04-25 11:18 | -5.78121 | 115.29731 | 36889 ft | 464 kts | 81° |
| 2026-04-25 11:19 | -5.77215 | 115.36126 | 36890 ft | 465 kts | 81° |
| 2026-04-25 11:19 | -5.76297 | 115.42558 | 36889 ft | 463 kts | 81° |
| 2026-04-25 11:20 | -5.75387 | 115.48960 | 36890 ft | 463 kts | 81° |
| 2026-04-25 11:20 | -5.74475 | 115.55329 | 36886 ft | 464 kts | 81° |
| 2026-04-25 11:21 | -5.73557 | 115.61757 | 36887 ft | 464 kts | 81° |
| 2026-04-25 11:21 | -5.72645 | 115.68158 | 36890 ft | 463 kts | 81° |
| 2026-04-25 11:22 | -5.71724 | 115.74556 | 36887 ft | 461 kts | 81° |
| 2026-04-25 11:22 | -5.70797 | 115.80967 | 36892 ft | 464 kts | 81° |
| 2026-04-25 11:23 | -5.69877 | 115.87395 | 36895 ft | 464 kts | 81° |
| 2026-04-25 11:23 | -5.68964 | 115.93751 | 36895 ft | 463 kts | 81° |
| 2026-04-25 11:24 | -5.68055 | 116.00155 | 36893 ft | 463 kts | 81° |
| 2026-04-25 11:24 | -5.67132 | 116.06568 | 36892 ft | 463 kts | 81° |
| 2026-04-25 11:25 | -5.66205 | 116.12980 | 36892 ft | 464 kts | 81° |
| 2026-04-25 11:25 | -5.65276 | 116.19397 | 36890 ft | 463 kts | 81° |
| 2026-04-25 11:26 | -5.64362 | 116.25801 | 36896 ft | 463 kts | 81° |
| 2026-04-25 11:26 | -5.63432 | 116.32210 | 36895 ft | 463 kts | 81° |
| 2026-04-25 11:27 | -5.62513 | 116.38608 | 36895 ft | 463 kts | 81° |
| 2026-04-25 11:27 | -5.61735 | 116.43932 | 36894 ft | 463 kts | 81° |
| 2026-04-25 11:28 | -5.60643 | 116.51363 | 36892 ft | 463 kts | 81° |
| 2026-04-25 11:28 | -5.59721 | 116.57764 | 36892 ft | 464 kts | 81° |
| 2026-04-25 11:29 | -5.58798 | 116.64176 | 36894 ft | 463 kts | 81° |
| 2026-04-25 11:29 | -5.57876 | 116.70533 | 36894 ft | 463 kts | 81° |
| 2026-04-25 11:30 | -5.56948 | 116.76940 | 36896 ft | 463 kts | 81° |
| 2026-04-25 11:30 | -5.56016 | 116.83348 | 36898 ft | 464 kts | 81° |
| 2026-04-25 11:31 | -5.55087 | 116.89761 | 36894 ft | 463 kts | 81° |
| 2026-04-25 11:31 | -5.54167 | 116.96121 | 36895 ft | 463 kts | 81° |
| 2026-04-25 11:32 | -5.53233 | 117.02534 | 36898 ft | 465 kts | 81° |
| 2026-04-25 11:32 | -5.52238 | 117.08935 | 36898 ft | 463 kts | 79° |
| 2026-04-25 11:33 | -5.51001 | 117.15295 | 36898 ft | 464 kts | 78° |
| 2026-04-25 11:33 | -5.49706 | 117.21651 | 36897 ft | 464 kts | 77° |
| 2026-04-25 11:34 | -5.48438 | 117.27952 | 36898 ft | 464 kts | 78° |
| 2026-04-25 11:34 | -5.47187 | 117.34295 | 36898 ft | 463 kts | 78° |
| 2026-04-25 11:35 | -5.45936 | 117.40644 | 36901 ft | 464 kts | 78° |
| 2026-04-25 11:35 | -5.44690 | 117.47004 | 36896 ft | 464 kts | 78° |
| 2026-04-25 11:36 | -5.43453 | 117.53310 | 36895 ft | 463 kts | 78° |
| 2026-04-25 11:36 | -5.42197 | 117.59651 | 36896 ft | 463 kts | 78° |
| 2026-04-25 11:37 | -5.40937 | 117.65999 | 36893 ft | 464 kts | 78° |
| 2026-04-25 11:37 | -5.39691 | 117.72330 | 36901 ft | 463 kts | 78° |
| 2026-04-25 11:38 | -5.38434 | 117.78688 | 36904 ft | 464 kts | 78° |
| 2026-04-25 11:38 | -5.37175 | 117.85045 | 36897 ft | 465 kts | 78° |
| 2026-04-25 11:39 | -5.35917 | 117.91405 | 36900 ft | 465 kts | 78° |
| 2026-04-25 11:39 | -5.34690 | 117.97712 | 36900 ft | 463 kts | 78° |
| 2026-04-25 11:40 | -5.33434 | 118.04083 | 36906 ft | 465 kts | 78° |
| 2026-04-25 11:40 | -5.32159 | 118.10437 | 36901 ft | 464 kts | 78° |
| 2026-04-25 11:41 | -5.30894 | 118.16812 | 36905 ft | 466 kts | 78° |
| 2026-04-25 11:41 | -5.29631 | 118.23174 | 36900 ft | 464 kts | 78° |
| 2026-04-25 11:42 | -5.28364 | 118.29508 | 36898 ft | 463 kts | 78° |
| 2026-04-25 11:42 | -5.27098 | 118.35859 | 36902 ft | 464 kts | 78° |
| 2026-04-25 11:43 | -5.25836 | 118.42205 | 36907 ft | 464 kts | 78° |
| 2026-04-25 11:43 | -5.24580 | 118.48525 | 36901 ft | 466 kts | 78° |
| 2026-04-25 11:44 | -5.23296 | 118.54859 | 36897 ft | 462 kts | 78° |
| 2026-04-25 11:44 | -5.22035 | 118.61220 | 36903 ft | 466 kts | 78° |
| 2026-04-25 11:45 | -5.20779 | 118.67589 | 36901 ft | 464 kts | 78° |
| 2026-04-25 11:45 | -5.19523 | 118.73941 | 36904 ft | 463 kts | 78° |
| 2026-04-25 11:46 | -5.18277 | 118.80228 | 36901 ft | 465 kts | 78° |
| 2026-04-25 11:46 | -5.16969 | 118.86521 | 36896 ft | 462 kts | 78° |
| 2026-04-25 11:47 | -5.15741 | 118.92823 | 36899 ft | 457 kts | 78° |
| 2026-04-25 11:47 | -5.14508 | 118.99121 | 36892 ft | 462 kts | 79° |
| 2026-04-25 11:48 | -5.13232 | 119.05479 | 36896 ft | 465 kts | 78° |
| 2026-04-25 11:48 | -5.11967 | 119.11790 | 36901 ft | 463 kts | 78° |
| 2026-04-25 11:49 | -5.10688 | 119.18156 | 36893 ft | 465 kts | 78° |
| 2026-04-25 11:49 | -5.09409 | 119.24515 | 36901 ft | 465 kts | 78° |
| 2026-04-25 11:50 | -5.08123 | 119.30855 | 36906 ft | 465 kts | 78° |
| 2026-04-25 11:50 | -5.06847 | 119.37192 | 36905 ft | 462 kts | 78° |
| 2026-04-25 11:51 | -5.05588 | 119.43522 | 36907 ft | 462 kts | 78° |
| 2026-04-25 11:51 | -5.04338 | 119.49849 | 36908 ft | 461 kts | 80° |
| 2026-04-25 11:52 | -5.03991 | 119.56285 | 36908 ft | 463 kts | 90° |
| 2026-04-25 11:52 | -5.04241 | 119.62729 | 36906 ft | 461 kts | 92° |
| 2026-04-25 11:53 | -5.04591 | 119.69137 | 36946 ft | 462 kts | 92° |
| 2026-04-25 11:53 | -5.04770 | 119.72356 | 37096 ft | 462 kts | 92° |
| 2026-04-25 11:53 | -5.04948 | 119.75573 | 37202 ft | 462 kts | 92° |
| 2026-04-25 11:54 | -5.05292 | 119.82028 | 37468 ft | 463 kts | 92° |
| 2026-04-25 11:54 | -5.05621 | 119.88477 | 37908 ft | 467 kts | 93° |
| 2026-04-25 11:55 | -5.05776 | 119.91704 | 38330 ft | 459 kts | 92° |
| 2026-04-25 11:55 | -5.05942 | 119.94876 | 38542 ft | 450 kts | 93° |
| 2026-04-25 11:55 | -5.06113 | 119.98065 | 38533 ft | 458 kts | 92° |
| 2026-04-25 11:56 | -5.06457 | 120.04430 | 38676 ft | 460 kts | 92° |
| 2026-04-25 11:56 | -5.06791 | 120.10842 | 38864 ft | 460 kts | 92° |
| 2026-04-25 11:57 | -5.07118 | 120.17238 | 38936 ft | 457 kts | 92° |
| 2026-04-25 11:57 | -5.07441 | 120.23590 | 38936 ft | 455 kts | 92° |
| 2026-04-25 11:58 | -5.07764 | 120.29927 | 38937 ft | 455 kts | 92° |
| 2026-04-25 11:58 | -5.08086 | 120.36264 | 38927 ft | 455 kts | 92° |
| 2026-04-25 11:59 | -5.08408 | 120.42610 | 38921 ft | 455 kts | 92° |
| 2026-04-25 11:59 | -5.08729 | 120.48954 | 38922 ft | 457 kts | 92° |
| 2026-04-25 12:00 | -5.09197 | 120.58582 | 38918 ft | 464 kts | 92° |
| 2026-04-25 12:01 | -5.09683 | 120.68134 | 38904 ft | 451 kts | 89° |
| 2026-04-25 12:01 | -5.09896 | 120.73410 | 38911 ft | 459 kts | 90° |
| 2026-04-25 12:02 | -5.10403 | 120.83130 | 38927 ft | 460 kts | 92° |
| 2026-04-25 12:02 | -5.10758 | 120.89455 | 38927 ft | 457 kts | 94° |
| 2026-04-25 12:03 | -5.11111 | 120.95859 | 38919 ft | 460 kts | 92° |
| 2026-04-25 12:03 | -5.11418 | 121.02239 | 38910 ft | 454 kts | 92° |
| 2026-04-25 12:04 | -5.11722 | 121.08555 | 38930 ft | 459 kts | 91° |
| 2026-04-25 12:04 | -5.12045 | 121.14891 | 38908 ft | 450 kts | 91° |
| 2026-04-25 12:05 | -5.12326 | 121.21233 | 38910 ft | 460 kts | 93° |
| 2026-04-25 12:05 | -5.12709 | 121.27636 | 38928 ft | 459 kts | 92° |
| 2026-04-25 12:06 | -5.12904 | 121.30800 | 38939 ft | 444 kts | 92° |
| 2026-04-25 12:06 | -5.13089 | 121.33870 | 38939 ft | 449 kts | 93° |
| 2026-04-25 12:06 | -5.13344 | 121.39993 | 38918 ft | 436 kts | 92° |
| 2026-04-25 12:07 | -5.13618 | 121.46161 | 38938 ft | 445 kts | 92° |
| 2026-04-25 12:07 | -5.13901 | 121.52442 | 38942 ft | 461 kts | 91° |
| 2026-04-25 12:08 | -5.14134 | 121.58846 | 38926 ft | 464 kts | 91° |
| 2026-04-25 12:08 | -5.14432 | 121.65369 | 38912 ft | 466 kts | 95° |
| 2026-04-25 12:09 | -5.14810 | 121.71885 | 38935 ft | 473 kts | 92° |
| 2026-04-25 12:09 | -5.14919 | 121.75106 | 38945 ft | 455 kts | 94° |
| 2026-04-25 12:09 | -5.15034 | 121.78252 | 38906 ft | 458 kts | 93° |
| 2026-04-25 12:10 | -5.15429 | 121.84672 | 38938 ft | 465 kts | 92° |
| 2026-04-25 12:10 | -5.15776 | 121.91152 | 38921 ft | 459 kts | 93° |
| 2026-04-25 12:11 | -5.16123 | 121.97520 | 38943 ft | 456 kts | 91° |
| 2026-04-25 12:11 | -5.16237 | 122.00785 | 38945 ft | 474 kts | 91° |
| 2026-04-25 12:11 | -5.16377 | 122.04026 | 38909 ft | 463 kts | 96° |
| 2026-04-25 12:12 | -5.16752 | 122.10381 | 38918 ft | 455 kts | 92° |
| 2026-04-25 12:12 | -5.17117 | 122.16683 | 38956 ft | 457 kts | 92° |
| 2026-04-25 12:13 | -5.17279 | 122.19945 | 38982 ft | 472 kts | 92° |
| 2026-04-25 12:13 | -5.17383 | 122.23213 | 38881 ft | 463 kts | 89° |
| 2026-04-25 12:13 | -5.17538 | 122.26403 | 38904 ft | 451 kts | 94° |
| 2026-04-25 12:13 | -5.17690 | 122.29558 | 38946 ft | 454 kts | 94° |
| 2026-04-25 12:14 | -5.17932 | 122.35821 | 38916 ft | 450 kts | 92° |
| 2026-04-25 12:14 | -5.18190 | 122.42103 | 38936 ft | 455 kts | 92° |
| 2026-04-25 12:15 | -5.18501 | 122.48485 | 38937 ft | 461 kts | 92° |
| 2026-04-25 12:15 | -5.18818 | 122.54927 | 38936 ft | 464 kts | 92° |
| 2026-04-25 12:16 | -5.19128 | 122.61390 | 38941 ft | 463 kts | 92° |
| 2026-04-25 12:16 | -5.19433 | 122.67842 | 38934 ft | 463 kts | 92° |
| 2026-04-25 12:17 | -5.19737 | 122.74304 | 38936 ft | 463 kts | 92° |
| 2026-04-25 12:17 | -5.20040 | 122.80750 | 38941 ft | 462 kts | 92° |
| 2026-04-25 12:18 | -5.20341 | 122.87168 | 38946 ft | 463 kts | 92° |
| 2026-04-25 12:18 | -5.20643 | 122.93617 | 38937 ft | 463 kts | 92° |
| 2026-04-25 12:19 | -5.21096 | 123.03315 | 38932 ft | 463 kts | 92° |
| 2026-04-25 12:20 | -5.21394 | 123.09734 | 38942 ft | 463 kts | 92° |
| 2026-04-25 12:20 | -5.21695 | 123.16205 | 38929 ft | 463 kts | 92° |
| 2026-04-25 12:21 | -5.21994 | 123.22665 | 38934 ft | 463 kts | 92° |
| 2026-04-25 12:21 | -5.22291 | 123.29075 | 38921 ft | 462 kts | 92° |
| 2026-04-25 12:22 | -5.22589 | 123.35521 | 38935 ft | 462 kts | 92° |
| 2026-04-25 12:22 | -5.22882 | 123.41974 | 38922 ft | 463 kts | 90° |
| 2026-04-25 12:23 | -5.23167 | 123.48446 | 38875 ft | 465 kts | 94° |
| 2026-04-25 12:23 | -5.23504 | 123.54841 | 38943 ft | 455 kts | 91° |
| 2026-04-25 12:24 | -5.23776 | 123.61189 | 38935 ft | 454 kts | 94° |
| 2026-04-25 12:24 | -5.24086 | 123.67507 | 38935 ft | 456 kts | 93° |
| 2026-04-25 12:25 | -5.24369 | 123.73897 | 38942 ft | 459 kts | 91° |
| 2026-04-25 12:25 | -5.24605 | 123.80350 | 38936 ft | 464 kts | 92° |
| 2026-04-25 12:26 | -5.24915 | 123.86832 | 38936 ft | 464 kts | 92° |
| 2026-04-25 12:26 | -5.25213 | 123.93376 | 38952 ft | 480 kts | 89° |
| 2026-04-25 12:27 | -5.25462 | 124.00076 | 38789 ft | 473 kts | 93° |
| 2026-04-25 12:27 | -5.25600 | 124.03296 | 38899 ft | 462 kts | 91° |
| 2026-04-25 12:27 | -5.25751 | 124.06520 | 38945 ft | 463 kts | 94° |
| 2026-04-25 12:28 | -5.26099 | 124.12951 | 38936 ft | 463 kts | 93° |
| 2026-04-25 12:28 | -5.26450 | 124.19398 | 38925 ft | 460 kts | 92° |
| 2026-04-25 12:29 | -5.26720 | 124.25800 | 38932 ft | 463 kts | 94° |
| 2026-04-25 12:29 | -5.26975 | 124.32153 | 38894 ft | 450 kts | 94° |
| 2026-04-25 12:30 | -5.27304 | 124.38377 | 38913 ft | 447 kts | 95° |
| 2026-04-25 12:30 | -5.27672 | 124.44726 | 38901 ft | 455 kts | 94° |
| 2026-04-25 12:30 | -5.27888 | 124.47783 | 38909 ft | 435 kts | 94° |
| 2026-04-25 12:31 | -5.28059 | 124.50829 | 38936 ft | 440 kts | 93° |
| 2026-04-25 12:31 | -5.28371 | 124.57002 | 38935 ft | 442 kts | 93° |
| 2026-04-25 12:32 | -5.28676 | 124.63205 | 38928 ft | 448 kts | 93° |
| 2026-04-25 12:32 | -5.28982 | 124.69442 | 38937 ft | 452 kts | 92° |
| 2026-04-25 12:33 | -5.29309 | 124.75738 | 38944 ft | 453 kts | 93° |
| 2026-04-25 12:33 | -5.29615 | 124.82098 | 38932 ft | 458 kts | 93° |
| 2026-04-25 12:34 | -5.29950 | 124.88494 | 38926 ft | 458 kts | 93° |
| 2026-04-25 12:34 | -5.30234 | 124.94859 | 38933 ft | 458 kts | 93° |
| 2026-04-25 12:35 | -5.30580 | 125.01228 | 38927 ft | 457 kts | 93° |
| 2026-04-25 12:35 | -5.30927 | 125.07603 | 38931 ft | 456 kts | 93° |
| 2026-04-25 12:36 | -5.31258 | 125.13963 | 38932 ft | 456 kts | 93° |
| 2026-04-25 12:36 | -5.31578 | 125.20272 | 38933 ft | 456 kts | 93° |
| 2026-04-25 12:37 | -5.31899 | 125.26625 | 38932 ft | 456 kts | 93° |
| 2026-04-25 12:37 | -5.32219 | 125.32979 | 38935 ft | 456 kts | 93° |
| 2026-04-25 12:38 | -5.32539 | 125.39333 | 38931 ft | 456 kts | 93° |
| 2026-04-25 12:38 | -5.32859 | 125.45689 | 38928 ft | 456 kts | 93° |
| 2026-04-25 12:39 | -5.33178 | 125.52046 | 38934 ft | 456 kts | 93° |
| 2026-04-25 12:39 | -5.33497 | 125.58404 | 38930 ft | 455 kts | 93° |
| 2026-04-25 12:40 | -5.33814 | 125.64750 | 38927 ft | 455 kts | 93° |
| 2026-04-25 12:40 | -5.34131 | 125.71097 | 38930 ft | 455 kts | 93° |
| 2026-04-25 12:41 | -5.34445 | 125.77399 | 38932 ft | 455 kts | 93° |
| 2026-04-25 12:41 | -5.34760 | 125.83732 | 38936 ft | 454 kts | 93° |
| 2026-04-25 12:42 | -5.35074 | 125.90071 | 38931 ft | 454 kts | 93° |
| 2026-04-25 12:42 | -5.35387 | 125.96397 | 38937 ft | 454 kts | 93° |
| 2026-04-25 12:43 | -5.35700 | 126.02731 | 38929 ft | 454 kts | 93° |
| 2026-04-25 12:43 | -5.36166 | 126.12190 | 38928 ft | 454 kts | 93° |
| 2026-04-25 12:44 | -5.36477 | 126.18522 | 38936 ft | 454 kts | 93° |
| 2026-04-25 12:45 | -5.36942 | 126.28008 | 38930 ft | 453 kts | 92° |
| 2026-04-25 12:45 | -5.37404 | 126.37468 | 38934 ft | 452 kts | 92° |
| 2026-04-25 12:46 | -5.37709 | 126.43726 | 38936 ft | 451 kts | 92° |
| 2026-04-25 12:46 | -5.38015 | 126.50020 | 38935 ft | 451 kts | 92° |
| 2026-04-25 12:47 | -5.38320 | 126.56314 | 38934 ft | 451 kts | 92° |
| 2026-04-25 12:47 | -5.38573 | 126.61527 | 38937 ft | 450 kts | 92° |
| 2026-04-25 12:48 | -5.38876 | 126.67803 | 38934 ft | 450 kts | 92° |
| 2026-04-25 12:48 | -5.39180 | 126.74101 | 38935 ft | 450 kts | 92° |
| 2026-04-25 12:49 | -5.39482 | 126.80376 | 38937 ft | 449 kts | 92° |
| 2026-04-25 12:49 | -5.39780 | 126.86587 | 38933 ft | 448 kts | 92° |
| 2026-04-25 12:50 | -5.40079 | 126.92829 | 38936 ft | 448 kts | 92° |
| 2026-04-25 12:50 | -5.40377 | 126.99072 | 38933 ft | 448 kts | 92° |
| 2026-04-25 12:51 | -5.40675 | 127.05318 | 38937 ft | 447 kts | 92° |
| 2026-04-25 12:51 | -5.40972 | 127.11548 | 38933 ft | 447 kts | 92° |
| 2026-04-25 12:52 | -5.41268 | 127.17783 | 38935 ft | 447 kts | 92° |
| 2026-04-25 12:52 | -5.41563 | 127.24012 | 38936 ft | 447 kts | 92° |
| 2026-04-25 12:53 | -5.41856 | 127.30192 | 38937 ft | 446 kts | 92° |
| 2026-04-25 12:53 | -5.42149 | 127.36406 | 38931 ft | 446 kts | 92° |
| 2026-04-25 12:54 | -5.42442 | 127.42627 | 38938 ft | 446 kts | 92° |
| 2026-04-25 12:54 | -5.42734 | 127.48848 | 38937 ft | 446 kts | 92° |
| 2026-04-25 12:55 | -5.42977 | 127.54020 | 38934 ft | 445 kts | 92° |
| 2026-04-25 12:55 | -5.43315 | 127.61234 | 38935 ft | 446 kts | 92° |
| 2026-04-25 12:56 | -5.43606 | 127.67475 | 38934 ft | 447 kts | 92° |
| 2026-04-25 12:56 | -5.43896 | 127.73708 | 38936 ft | 447 kts | 92° |
| 2026-04-25 12:57 | -5.44186 | 127.79946 | 38939 ft | 448 kts | 92° |
| 2026-04-25 12:57 | -5.44474 | 127.86159 | 38939 ft | 448 kts | 92° |
| 2026-04-25 12:58 | -5.44763 | 127.92402 | 38936 ft | 448 kts | 92° |
| 2026-04-25 12:58 | -5.45052 | 127.98659 | 38939 ft | 448 kts | 92° |
| 2026-04-25 12:59 | -5.45339 | 128.04892 | 38939 ft | 447 kts | 92° |
| 2026-04-25 12:59 | -5.45626 | 128.11140 | 38936 ft | 447 kts | 92° |
| 2026-04-25 13:00 | -5.45863 | 128.16321 | 38938 ft | 447 kts | 92° |
| 2026-04-25 13:00 | -5.46195 | 128.23577 | 38938 ft | 448 kts | 93° |
| 2026-04-25 13:01 | -5.46481 | 128.29828 | 38938 ft | 448 kts | 93° |
| 2026-04-25 13:01 | -5.46766 | 128.36075 | 38937 ft | 448 kts | 93° |
| 2026-04-25 13:02 | -5.47050 | 128.42330 | 38937 ft | 448 kts | 93° |
| 2026-04-25 13:02 | -5.47333 | 128.48578 | 38932 ft | 448 kts | 93° |
| 2026-04-25 13:03 | -5.47614 | 128.54789 | 38934 ft | 448 kts | 93° |
| 2026-04-25 13:03 | -5.47896 | 128.61036 | 38935 ft | 448 kts | 93° |
| 2026-04-25 13:04 | -5.48177 | 128.67284 | 38936 ft | 448 kts | 93° |
| 2026-04-25 13:04 | -5.48458 | 128.73543 | 38934 ft | 449 kts | 93° |
| 2026-04-25 13:05 | -5.48739 | 128.79799 | 38940 ft | 449 kts | 93° |
| 2026-04-25 13:05 | -5.49019 | 128.86063 | 38937 ft | 449 kts | 93° |
| 2026-04-25 13:06 | -5.49298 | 128.92319 | 38935 ft | 448 kts | 93° |
| 2026-04-25 13:06 | -5.49574 | 128.98527 | 38937 ft | 448 kts | 93° |
| 2026-04-25 13:07 | -5.49852 | 129.04784 | 38937 ft | 448 kts | 93° |
| 2026-04-25 13:07 | -5.50129 | 129.11039 | 38937 ft | 448 kts | 93° |
| 2026-04-25 13:08 | -5.50405 | 129.17286 | 38938 ft | 448 kts | 93° |
| 2026-04-25 13:08 | -5.50681 | 129.23533 | 38938 ft | 448 kts | 93° |
| 2026-04-25 13:09 | -5.50956 | 129.29781 | 38938 ft | 448 kts | 93° |
| 2026-04-25 13:09 | -5.51228 | 129.36000 | 38940 ft | 448 kts | 93° |
| 2026-04-25 13:10 | -5.51502 | 129.42249 | 38934 ft | 448 kts | 93° |
| 2026-04-25 13:10 | -5.51775 | 129.48501 | 38937 ft | 448 kts | 93° |
| 2026-04-25 13:11 | -5.52047 | 129.54753 | 38940 ft | 448 kts | 93° |
| 2026-04-25 13:11 | -5.52319 | 129.61012 | 38938 ft | 448 kts | 92° |
| 2026-04-25 13:12 | -5.52589 | 129.67231 | 38935 ft | 449 kts | 92° |
| 2026-04-25 13:12 | -5.52816 | 129.72476 | 38937 ft | 449 kts | 92° |
| 2026-04-25 13:13 | -5.53138 | 129.79769 | 38947 ft | 451 kts | 93° |
| 2026-04-25 13:13 | -5.53408 | 129.86054 | 38938 ft | 449 kts | 92° |
| 2026-04-25 13:14 | -5.53670 | 129.92273 | 38932 ft | 449 kts | 92° |
| 2026-04-25 13:14 | -5.53937 | 129.98541 | 38937 ft | 449 kts | 92° |
| 2026-04-25 13:15 | -5.54204 | 130.04810 | 38934 ft | 449 kts | 92° |
| 2026-04-25 13:15 | -5.54471 | 130.11072 | 38940 ft | 449 kts | 92° |
| 2026-04-25 13:16 | -5.54738 | 130.17335 | 38935 ft | 449 kts | 92° |
| 2026-04-25 13:16 | -5.55002 | 130.23565 | 38938 ft | 449 kts | 92° |
| 2026-04-25 13:17 | -5.55267 | 130.29837 | 38936 ft | 449 kts | 92° |
| 2026-04-25 13:17 | -5.55531 | 130.36096 | 38936 ft | 449 kts | 92° |
| 2026-04-25 13:18 | -5.55796 | 130.42376 | 38939 ft | 449 kts | 92° |
| 2026-04-25 13:18 | -5.56059 | 130.48649 | 38938 ft | 449 kts | 92° |
| 2026-04-25 13:19 | -5.56321 | 130.54911 | 38934 ft | 449 kts | 92° |
| 2026-04-25 13:19 | -5.56495 | 130.59060 | 38936 ft | 449 kts | 92° |
| 2026-04-25 13:20 | -5.56799 | 130.66367 | 38936 ft | 449 kts | 92° |
| 2026-04-25 13:20 | -5.57102 | 130.73652 | 38935 ft | 449 kts | 92° |
| 2026-04-25 13:21 | -5.57362 | 130.79918 | 38939 ft | 449 kts | 92° |
| 2026-04-25 13:21 | -5.57621 | 130.86183 | 38938 ft | 449 kts | 92° |
| 2026-04-25 13:22 | -5.57879 | 130.92434 | 38940 ft | 449 kts | 92° |
| 2026-04-25 13:23 | -5.58264 | 131.01813 | 38933 ft | 447 kts | 92° |
| 2026-04-25 13:23 | -5.58518 | 131.08010 | 38933 ft | 447 kts | 92° |
| 2026-04-25 13:24 | -5.58774 | 131.14258 | 38937 ft | 447 kts | 92° |
| 2026-04-25 13:24 | -5.59027 | 131.20488 | 38935 ft | 446 kts | 92° |
| 2026-04-25 13:25 | -5.59281 | 131.26716 | 38937 ft | 446 kts | 92° |
| 2026-04-25 13:25 | -5.59533 | 131.32942 | 38936 ft | 446 kts | 92° |
| 2026-04-25 13:26 | -5.59785 | 131.39161 | 38935 ft | 446 kts | 92° |
| 2026-04-25 13:26 | -5.60036 | 131.45381 | 38933 ft | 446 kts | 92° |
| 2026-04-25 13:27 | -5.60284 | 131.51558 | 38937 ft | 446 kts | 92° |
| 2026-04-25 13:27 | -5.60534 | 131.57779 | 38934 ft | 446 kts | 93° |
| 2026-04-25 13:28 | -5.60784 | 131.64015 | 38933 ft | 447 kts | 93° |
| 2026-04-25 13:28 | -5.61033 | 131.70249 | 38928 ft | 447 kts | 93° |
| 2026-04-25 13:29 | -5.61281 | 131.76484 | 38933 ft | 447 kts | 93° |
| 2026-04-25 13:29 | -5.61528 | 131.82721 | 38936 ft | 447 kts | 93° |
| 2026-04-25 13:30 | -5.61899 | 131.92096 | 38936 ft | 448 kts | 93° |
| 2026-04-25 13:31 | -5.62267 | 132.01429 | 38937 ft | 448 kts | 93° |
| 2026-04-25 13:31 | -5.62513 | 132.07686 | 38930 ft | 449 kts | 93° |
| 2026-04-25 13:32 | -5.62759 | 132.13963 | 38930 ft | 449 kts | 93° |
| 2026-04-25 13:32 | -5.63002 | 132.20190 | 38923 ft | 449 kts | 93° |
| 2026-04-25 13:33 | -5.63247 | 132.26463 | 38939 ft | 449 kts | 93° |
| 2026-04-25 13:33 | -5.63502 | 132.32736 | 38924 ft | 448 kts | 93° |
| 2026-04-25 13:34 | -5.63773 | 132.39004 | 38937 ft | 450 kts | 92° |
| 2026-04-25 13:34 | -5.63993 | 132.45262 | 38938 ft | 451 kts | 92° |
| 2026-04-25 13:35 | -5.64221 | 132.51567 | 38924 ft | 452 kts | 92° |
| 2026-04-25 13:35 | -5.64425 | 132.56807 | 38942 ft | 451 kts | 93° |
| 2026-04-25 13:36 | -5.64662 | 132.63107 | 38951 ft | 447 kts | 95° |
| 2026-04-25 13:36 | -5.64979 | 132.69316 | 38949 ft | 454 kts | 97° |
| 2026-04-25 13:37 | -5.66312 | 132.75399 | 38921 ft | 447 kts | 108° |
| 2026-04-25 13:37 | -5.68420 | 132.81278 | 38949 ft | 451 kts | 110° |
| 2026-04-25 13:38 | -5.70729 | 132.87130 | 38946 ft | 450 kts | 112° |
| 2026-04-25 13:38 | -5.73084 | 132.93010 | 38951 ft | 452 kts | 110° |
| 2026-04-25 13:39 | -5.75332 | 132.98886 | 38949 ft | 457 kts | 112° |
| 2026-04-25 13:39 | -5.77651 | 133.04752 | 38925 ft | 450 kts | 111° |
| 2026-04-25 13:39 | -5.78776 | 133.07693 | 38933 ft | 461 kts | 111° |
| 2026-04-25 13:40 | -5.79904 | 133.10727 | 38964 ft | 467 kts | 110° |
| 2026-04-25 13:40 | -5.82184 | 133.16755 | 38932 ft | 455 kts | 110° |
| 2026-04-25 13:41 | -5.84449 | 133.22664 | 38926 ft | 444 kts | 107° |
| 2026-04-25 13:41 | -5.86506 | 133.28441 | 38929 ft | 431 kts | 109° |
| 2026-04-25 13:42 | -5.88705 | 133.34113 | 38906 ft | 444 kts | 111° |
| 2026-04-25 13:42 | -5.89852 | 133.37005 | 38956 ft | 458 kts | 112° |
| 2026-04-25 13:42 | -5.91006 | 133.39964 | 38965 ft | 447 kts | 110° |
| 2026-04-25 13:42 | -5.92111 | 133.42924 | 38957 ft | 463 kts | 111° |
| 2026-04-25 13:43 | -5.93228 | 133.45985 | 38950 ft | 456 kts | 109° |
| 2026-04-25 13:43 | -5.95493 | 133.51893 | 38923 ft | 450 kts | 110° |
| 2026-04-25 13:43 | -5.96648 | 133.54789 | 38908 ft | 438 kts | 111° |
| 2026-04-25 13:44 | -5.97776 | 133.57640 | 38950 ft | 443 kts | 111° |
| 2026-04-25 13:44 | -5.99867 | 133.63394 | 38956 ft | 438 kts | 109° |
| 2026-04-25 13:45 | -6.02055 | 133.69156 | 38927 ft | 439 kts | 111° |
| 2026-04-25 13:45 | -6.04279 | 133.75001 | 38936 ft | 460 kts | 109° |
| 2026-04-25 13:46 | -6.06542 | 133.80920 | 38944 ft | 454 kts | 110° |
| 2026-04-25 13:46 | -6.08838 | 133.86814 | 38950 ft | 454 kts | 109° |
| 2026-04-25 13:47 | -6.11124 | 133.92697 | 38916 ft | 454 kts | 112° |
| 2026-04-25 13:47 | -6.13385 | 133.98642 | 38947 ft | 454 kts | 110° |
| 2026-04-25 13:48 | -6.15612 | 134.04610 | 38931 ft | 458 kts | 110° |
| 2026-04-25 13:48 | -6.17863 | 134.10579 | 38929 ft | 456 kts | 111° |
| 2026-04-25 13:49 | -6.20207 | 134.16590 | 38936 ft | 458 kts | 110° |
| 2026-04-25 13:49 | -6.22416 | 134.22489 | 38951 ft | 453 kts | 108° |
| 2026-04-25 13:50 | -6.24723 | 134.28412 | 38949 ft | 458 kts | 111° |
| 2026-04-25 13:50 | -6.27069 | 134.34448 | 38935 ft | 460 kts | 110° |
| 2026-04-25 13:51 | -6.29276 | 134.40458 | 38948 ft | 457 kts | 109° |
| 2026-04-25 13:51 | -6.31495 | 134.46446 | 38941 ft | 458 kts | 110° |
| 2026-04-25 13:52 | -6.33739 | 134.52439 | 38932 ft | 462 kts | 110° |
| 2026-04-25 13:52 | -6.36020 | 134.58451 | 38924 ft | 461 kts | 109° |
| 2026-04-25 13:53 | -6.38213 | 134.64531 | 38929 ft | 472 kts | 109° |
| 2026-04-25 13:53 | -6.40527 | 134.70736 | 38929 ft | 470 kts | 109° |
| 2026-04-25 13:53 | -6.41665 | 134.73778 | 38925 ft | 456 kts | 111° |
| 2026-04-25 13:54 | -6.42815 | 134.76742 | 38951 ft | 457 kts | 111° |
| 2026-04-25 13:54 | -6.45158 | 134.82697 | 38936 ft | 458 kts | 111° |
| 2026-04-25 13:55 | -6.47454 | 134.88641 | 38949 ft | 459 kts | 110° |
| 2026-04-25 13:55 | -6.49724 | 134.94635 | 38951 ft | 458 kts | 110° |
| 2026-04-25 13:56 | -6.51989 | 135.00633 | 38939 ft | 459 kts | 110° |
| 2026-04-25 13:56 | -6.54247 | 135.06612 | 38950 ft | 456 kts | 110° |
| 2026-04-25 13:57 | -6.56489 | 135.12556 | 38949 ft | 455 kts | 110° |
| 2026-04-25 13:57 | -6.58739 | 135.18525 | 38938 ft | 455 kts | 110° |
| 2026-04-25 13:58 | -6.60984 | 135.24474 | 38954 ft | 455 kts | 110° |
| 2026-04-25 13:58 | -6.63227 | 135.30423 | 38940 ft | 455 kts | 110° |
| 2026-04-25 13:59 | -6.65454 | 135.36331 | 38941 ft | 455 kts | 110° |
| 2026-04-25 13:59 | -6.67697 | 135.42286 | 38950 ft | 456 kts | 110° |
| 2026-04-25 14:00 | -6.69983 | 135.48273 | 38946 ft | 458 kts | 110° |
| 2026-04-25 14:00 | -6.72227 | 135.54275 | 38931 ft | 457 kts | 109° |
| 2026-04-25 14:01 | -6.74503 | 135.60341 | 38949 ft | 463 kts | 109° |
| 2026-04-25 14:01 | -6.76816 | 135.66393 | 38921 ft | 463 kts | 110° |
| 2026-04-25 14:02 | -6.79075 | 135.72406 | 38943 ft | 461 kts | 109° |
| 2026-04-25 14:02 | -6.81313 | 135.78476 | 38947 ft | 461 kts | 109° |
| 2026-04-25 14:03 | -6.83571 | 135.84477 | 38951 ft | 459 kts | 109° |
| 2026-04-25 14:03 | -6.85833 | 135.90508 | 38938 ft | 461 kts | 109° |
| 2026-04-25 14:04 | -6.88095 | 135.96509 | 38947 ft | 460 kts | 109° |
| 2026-04-25 14:04 | -6.90350 | 136.02543 | 38937 ft | 460 kts | 109° |
| 2026-04-25 14:05 | -6.92596 | 136.08551 | 38940 ft | 461 kts | 109° |
| 2026-04-25 14:05 | -6.94855 | 136.14582 | 38954 ft | 460 kts | 109° |
| 2026-04-25 14:06 | -6.97115 | 136.20615 | 38938 ft | 461 kts | 109° |
| 2026-04-25 14:06 | -6.99349 | 136.26672 | 38941 ft | 461 kts | 109° |
| 2026-04-25 14:07 | -7.01620 | 136.32704 | 38941 ft | 461 kts | 109° |
| 2026-04-25 14:07 | -7.03915 | 136.38748 | 38936 ft | 462 kts | 110° |
| 2026-04-25 14:08 | -7.06169 | 136.44753 | 38939 ft | 461 kts | 109° |
| 2026-04-25 14:08 | -7.08415 | 136.50795 | 38936 ft | 460 kts | 109° |
| 2026-04-25 14:09 | -7.10762 | 136.56872 | 38937 ft | 471 kts | 109° |
| 2026-04-25 14:09 | -7.13075 | 136.63014 | 38926 ft | 475 kts | 108° |
| 2026-04-25 14:10 | -7.15217 | 136.69210 | 38963 ft | 467 kts | 107° |
| 2026-04-25 14:10 | -7.17428 | 136.75392 | 38941 ft | 465 kts | 109° |
| 2026-04-25 14:11 | -7.19722 | 136.81477 | 38942 ft | 461 kts | 109° |
| 2026-04-25 14:11 | -7.22051 | 136.87480 | 38935 ft | 459 kts | 110° |
| 2026-04-25 14:12 | -7.24282 | 136.93528 | 38933 ft | 456 kts | 108° |
| 2026-04-25 14:12 | -7.25425 | 136.96562 | 38929 ft | 467 kts | 108° |
| 2026-04-25 14:12 | -7.26575 | 136.99599 | 38941 ft | 469 kts | 111° |
| 2026-04-25 14:13 | -7.28842 | 137.05656 | 38936 ft | 465 kts | 111° |
| 2026-04-25 14:13 | -7.29974 | 137.08677 | 38961 ft | 453 kts | 108° |
| 2026-04-25 14:13 | -7.31105 | 137.11654 | 38939 ft | 455 kts | 109° |
| 2026-04-25 14:14 | -7.33374 | 137.17676 | 38962 ft | 462 kts | 108° |
| 2026-04-25 14:14 | -7.35591 | 137.23751 | 38907 ft | 458 kts | 110° |
| 2026-04-25 14:15 | -7.37840 | 137.29737 | 38930 ft | 454 kts | 110° |
| 2026-04-25 14:15 | -7.40063 | 137.35771 | 38958 ft | 461 kts | 108° |
| 2026-04-25 14:16 | -7.42316 | 137.41810 | 38939 ft | 464 kts | 109° |
| 2026-04-25 14:16 | -7.44567 | 137.47893 | 38940 ft | 463 kts | 108° |
| 2026-04-25 14:17 | -7.46806 | 137.53967 | 38944 ft | 462 kts | 109° |
| 2026-04-25 14:17 | -7.49059 | 137.60039 | 38929 ft | 459 kts | 108° |
| 2026-04-25 14:17 | -7.50229 | 137.63106 | 38961 ft | 472 kts | 110° |
| 2026-04-25 14:18 | -7.51397 | 137.66192 | 38937 ft | 469 kts | 109° |
| 2026-04-25 14:18 | -7.53647 | 137.72314 | 38940 ft | 464 kts | 108° |
| 2026-04-25 14:19 | -7.55890 | 137.78354 | 38924 ft | 454 kts | 107° |
| 2026-04-25 14:19 | -7.58103 | 137.84358 | 38941 ft | 457 kts | 108° |
| 2026-04-25 14:20 | -7.60320 | 137.90370 | 38943 ft | 460 kts | 108° |
| 2026-04-25 14:20 | -7.62534 | 137.96423 | 38940 ft | 467 kts | 108° |
| 2026-04-25 14:21 | -7.64790 | 138.02559 | 38949 ft | 466 kts | 109° |
| 2026-04-25 14:21 | -7.67062 | 138.08705 | 38949 ft | 471 kts | 108° |
| 2026-04-25 14:22 | -7.69366 | 138.14867 | 38973 ft | 471 kts | 110° |
| 2026-04-25 14:22 | -7.71252 | 138.19992 | 38931 ft | 472 kts | 108° |
| 2026-04-25 14:23 | -7.73502 | 138.26178 | 38948 ft | 467 kts | 108° |
| 2026-04-25 14:23 | -7.75738 | 138.32369 | 38946 ft | 470 kts | 108° |
| 2026-04-25 14:24 | -7.78050 | 138.38542 | 38970 ft | 471 kts | 107° |
| 2026-04-25 14:24 | -7.80341 | 138.44730 | 38943 ft | 468 kts | 109° |
| 2026-04-25 14:25 | -7.82588 | 138.50792 | 38940 ft | 459 kts | 110° |
| 2026-04-25 14:25 | -7.84825 | 138.56806 | 38942 ft | 457 kts | 108° |
| 2026-04-25 14:26 | -7.87026 | 138.62822 | 38947 ft | 457 kts | 109° |
| 2026-04-25 14:26 | -7.89245 | 138.68869 | 38946 ft | 464 kts | 109° |
| 2026-04-25 14:27 | -7.90742 | 138.75185 | 38955 ft | 464 kts | 95° |
| 2026-04-25 14:27 | -7.91094 | 138.81643 | 38895 ft | 466 kts | 90° |
| 2026-04-25 14:27 | -7.91173 | 138.84940 | 38973 ft | 479 kts | 92° |
| 2026-04-25 14:28 | -7.91222 | 138.88300 | 38957 ft | 477 kts | 89° |
| 2026-04-25 14:28 | -7.91304 | 138.94953 | 38978 ft | 476 kts | 91° |
| 2026-04-25 14:29 | -7.91363 | 139.01597 | 38934 ft | 463 kts | 91° |
| 2026-04-25 14:29 | -7.91426 | 139.08128 | 38949 ft | 467 kts | 90° |
| 2026-04-25 14:30 | -7.91501 | 139.14663 | 38948 ft | 465 kts | 90° |
| 2026-04-25 14:30 | -7.91633 | 139.24427 | 38950 ft | 465 kts | 90° |
| 2026-04-25 14:31 | -7.91733 | 139.30938 | 38951 ft | 464 kts | 90° |
| 2026-04-25 14:31 | -7.91832 | 139.37446 | 38950 ft | 464 kts | 90° |
| 2026-04-25 14:32 | -7.91927 | 139.43962 | 38945 ft | 464 kts | 90° |
| 2026-04-25 14:32 | -7.92021 | 139.50470 | 38947 ft | 464 kts | 90° |
| 2026-04-25 14:33 | -7.92112 | 139.56949 | 38951 ft | 464 kts | 90° |
| 2026-04-25 14:33 | -7.92203 | 139.63473 | 38951 ft | 464 kts | 90° |
| 2026-04-25 14:34 | -7.92294 | 139.69974 | 38949 ft | 464 kts | 90° |
| 2026-04-25 14:34 | -7.92383 | 139.76482 | 38945 ft | 464 kts | 90° |
| 2026-04-25 14:35 | -7.92470 | 139.82967 | 38945 ft | 465 kts | 90° |
| 2026-04-25 14:35 | -7.92558 | 139.89487 | 38948 ft | 465 kts | 90° |
| 2026-04-25 14:36 | -7.92644 | 139.96008 | 38945 ft | 465 kts | 90° |
| 2026-04-25 14:36 | -7.92730 | 140.02533 | 38947 ft | 466 kts | 90° |
| 2026-04-25 14:37 | -7.92815 | 140.09074 | 38947 ft | 466 kts | 90° |
| 2026-04-25 14:37 | -7.92898 | 140.15613 | 38947 ft | 466 kts | 90° |
| 2026-04-25 14:38 | -7.92981 | 140.22149 | 38946 ft | 466 kts | 90° |
| 2026-04-25 14:38 | -7.93062 | 140.28697 | 38946 ft | 466 kts | 90° |
| 2026-04-25 14:39 | -7.93142 | 140.35191 | 38946 ft | 466 kts | 90° |
| 2026-04-25 14:39 | -7.93222 | 140.41734 | 38947 ft | 466 kts | 90° |
| 2026-04-25 14:40 | -7.93300 | 140.48283 | 38944 ft | 466 kts | 90° |
| 2026-04-25 14:40 | -7.93377 | 140.54823 | 38944 ft | 466 kts | 90° |
| 2026-04-25 14:41 | -7.93454 | 140.61371 | 38947 ft | 466 kts | 90° |
| 2026-04-25 14:41 | -7.93530 | 140.67911 | 38947 ft | 466 kts | 89° |
| 2026-04-25 14:42 | -7.93591 | 140.73351 | 38945 ft | 466 kts | 89° |
| 2026-04-25 14:42 | -7.93677 | 140.80948 | 38944 ft | 465 kts | 89° |
| 2026-04-25 14:43 | -7.93749 | 140.87464 | 38946 ft | 464 kts | 89° |
| 2026-04-25 14:43 | -7.93820 | 140.93979 | 38948 ft | 465 kts | 89° |
| 2026-04-25 14:44 | -7.93890 | 141.00504 | 38944 ft | 465 kts | 89° |
| 2026-04-25 14:44 | -7.93959 | 141.07032 | 38945 ft | 465 kts | 89° |
| 2026-04-25 14:45 | -7.94027 | 141.13553 | 38945 ft | 465 kts | 89° |
| 2026-04-25 14:45 | -7.94094 | 141.20082 | 38943 ft | 466 kts | 89° |
| 2026-04-25 14:46 | -7.94160 | 141.26615 | 38940 ft | 466 kts | 89° |
| 2026-04-25 14:46 | -7.94226 | 141.33149 | 38941 ft | 466 kts | 89° |
| 2026-04-25 14:47 | -7.94279 | 141.38581 | 38942 ft | 466 kts | 89° |
| 2026-04-25 14:47 | -7.94352 | 141.46183 | 38941 ft | 466 kts | 89° |
| 2026-04-25 14:48 | -7.94415 | 141.52721 | 38940 ft | 466 kts | 89° |
| 2026-04-25 14:48 | -7.94475 | 141.59260 | 38942 ft | 466 kts | 89° |
| 2026-04-25 14:49 | -7.94536 | 141.65798 | 38937 ft | 466 kts | 89° |
| 2026-04-25 14:49 | -7.94595 | 141.72329 | 38934 ft | 466 kts | 89° |
| 2026-04-25 14:50 | -7.94653 | 141.78875 | 38936 ft | 466 kts | 89° |
| 2026-04-25 14:50 | -7.94710 | 141.85414 | 38936 ft | 466 kts | 89° |
| 2026-04-25 14:51 | -7.94766 | 141.91960 | 38939 ft | 467 kts | 89° |
| 2026-04-25 14:51 | -7.94821 | 141.98518 | 38936 ft | 467 kts | 89° |
| 2026-04-25 14:52 | -7.94874 | 142.05028 | 38940 ft | 464 kts | 89° |
| 2026-04-25 14:52 | -7.94877 | 142.10451 | 38934 ft | 462 kts | 90° |
| 2026-04-25 14:53 | -7.94951 | 142.18040 | 38928 ft | 469 kts | 89° |
| 2026-04-25 14:53 | -7.95006 | 142.24635 | 38941 ft | 465 kts | 93° |
| 2026-04-25 14:54 | -7.95161 | 142.31164 | 38938 ft | 466 kts | 91° |
| 2026-04-25 14:54 | -7.95210 | 142.37721 | 38940 ft | 469 kts | 89° |
| 2026-04-25 14:55 | -7.95187 | 142.44254 | 38924 ft | 466 kts | 89° |
| 2026-04-25 14:55 | -7.95221 | 142.50788 | 38933 ft | 472 kts | 91° |
| 2026-04-25 14:56 | -7.95232 | 142.54087 | 38976 ft | 455 kts | 88° |
| 2026-04-25 14:56 | -7.95200 | 142.57304 | 38937 ft | 461 kts | 87° |
| 2026-04-25 14:56 | -7.95210 | 142.63760 | 38926 ft | 462 kts | 92° |
| 2026-04-25 14:57 | -7.95375 | 142.66917 | 38940 ft | 432 kts | 97° |
| 2026-04-25 14:57 | -7.95528 | 142.69963 | 38920 ft | 450 kts | 92° |
| 2026-04-25 14:57 | -7.95472 | 142.76299 | 38893 ft | 457 kts | 88° |
| 2026-04-25 14:58 | -7.95444 | 142.79546 | 38964 ft | 470 kts | 90° |
| 2026-04-25 14:58 | -7.95463 | 142.82798 | 38927 ft | 465 kts | 90° |
| 2026-04-25 14:58 | -7.95481 | 142.89224 | 38935 ft | 458 kts | 90° |
| 2026-04-25 14:59 | -7.95539 | 142.95594 | 38911 ft | 448 kts | 89° |
| 2026-04-25 14:59 | -7.95522 | 143.01876 | 38940 ft | 453 kts | 88° |
| 2026-04-25 15:00 | -7.95640 | 143.08251 | 38936 ft | 464 kts | 90° |
| 2026-04-25 15:00 | -7.95660 | 143.11556 | 38935 ft | 478 kts | 88° |
| 2026-04-25 15:00 | -7.95635 | 143.14935 | 38946 ft | 480 kts | 88° |
| 2026-04-25 15:01 | -7.95625 | 143.21568 | 38918 ft | 468 kts | 90° |
| 2026-04-25 15:01 | -7.95708 | 143.28100 | 38928 ft | 468 kts | 90° |
| 2026-04-25 15:02 | -7.95774 | 143.34621 | 38923 ft | 464 kts | 90° |
| 2026-04-25 15:02 | -7.95824 | 143.41137 | 38922 ft | 462 kts | 89° |
| 2026-04-25 15:03 | -7.95887 | 143.47590 | 38933 ft | 462 kts | 90° |
| 2026-04-25 15:03 | -7.95987 | 143.54180 | 38917 ft | 471 kts | 90° |
| 2026-04-25 15:04 | -7.95954 | 143.60764 | 38919 ft | 467 kts | 89° |
| 2026-04-25 15:04 | -7.95909 | 143.67281 | 38920 ft | 466 kts | 89° |
| 2026-04-25 15:05 | -7.95910 | 143.73819 | 38925 ft | 466 kts | 90° |
| 2026-04-25 15:06 | -7.95949 | 143.83638 | 38922 ft | 467 kts | 90° |
| 2026-04-25 15:06 | -7.95977 | 143.90198 | 38922 ft | 467 kts | 90° |
| 2026-04-25 15:07 | -7.95919 | 143.96696 | 38926 ft | 469 kts | 91° |
| 2026-04-25 15:07 | -7.95967 | 144.03247 | 38913 ft | 464 kts | 91° |
| 2026-04-25 15:08 | -7.96089 | 144.09786 | 38915 ft | 461 kts | 91° |
| 2026-04-25 15:08 | -7.96132 | 144.15146 | 38907 ft | 453 kts | 89° |
| 2026-04-25 15:08 | -7.96123 | 144.18260 | 38896 ft | 441 kts | 86° |
| 2026-04-25 15:09 | -7.96082 | 144.21372 | 38915 ft | 448 kts | 89° |
| 2026-04-25 15:09 | -7.96067 | 144.24540 | 38909 ft | 463 kts | 90° |
| 2026-04-25 15:09 | -7.96055 | 144.31050 | 38909 ft | 471 kts | 88° |
| 2026-04-25 15:10 | -7.96064 | 144.34333 | 38910 ft | 457 kts | 87° |
| 2026-04-25 15:10 | -7.96015 | 144.37546 | 38927 ft | 458 kts | 89° |
| 2026-04-25 15:11 | -7.96107 | 144.47357 | 38907 ft | 470 kts | 90° |
| 2026-04-25 15:11 | -7.96103 | 144.53940 | 38918 ft | 467 kts | 88° |
| 2026-04-25 15:12 | -7.96194 | 144.63696 | 38884 ft | 471 kts | 87° |
| 2026-04-25 15:12 | -7.96165 | 144.69175 | 38923 ft | 467 kts | 86° |
| 2026-04-25 15:13 | -7.96101 | 144.79981 | 38840 ft | 458 kts | 93° |
| 2026-04-25 15:14 | -7.96273 | 144.86428 | 38905 ft | 462 kts | 85° |
| 2026-04-25 15:14 | -7.96195 | 144.89711 | 38970 ft | 474 kts | 85° |
| 2026-04-25 15:14 | -7.96188 | 144.93091 | 38941 ft | 483 kts | 89° |
| 2026-04-25 15:14 | -7.96231 | 144.96507 | 38919 ft | 495 kts | 90° |
| 2026-04-25 15:15 | -7.96179 | 144.99912 | 39054 ft | 486 kts | 89° |
| 2026-04-25 15:15 | -7.96213 | 145.06532 | 38980 ft | 465 kts | 94° |
| 2026-04-25 15:16 | -7.96270 | 145.13031 | 38908 ft | 469 kts | 91° |
| 2026-04-25 15:16 | -7.96236 | 145.22977 | 38909 ft | 478 kts | 90° |
| 2026-04-25 15:17 | -7.96264 | 145.33037 | 38908 ft | 479 kts | 90° |
| 2026-04-25 15:18 | -7.96275 | 145.39702 | 38910 ft | 478 kts | 90° |
| 2026-04-25 15:18 | -7.96272 | 145.49746 | 38908 ft | 477 kts | 90° |
| 2026-04-25 15:19 | -7.96269 | 145.55320 | 38911 ft | 477 kts | 90° |
| 2026-04-25 15:19 | -7.96243 | 145.59804 | 38450 ft | 481 kts | 89° |
| 2026-04-25 15:19 | -7.96229 | 145.63173 | 37828 ft | 475 kts | 90° |
| 2026-04-25 15:20 | -7.96256 | 145.66491 | 37140 ft | 477 kts | 91° |
| 2026-04-25 15:20 | -7.96285 | 145.69874 | 36520 ft | 492 kts | 92° |
| 2026-04-25 15:20 | -7.96341 | 145.73315 | 35929 ft | 484 kts | 95° |
| 2026-04-25 15:20 | -7.96936 | 145.76684 | 35258 ft | 491 kts | 108° |
| 2026-04-25 15:21 | -7.98261 | 145.79847 | 34653 ft | 487 kts | 120° |
| 2026-04-25 15:21 | -8.00064 | 145.82726 | 34073 ft | 486 kts | 125° |
| 2026-04-25 15:21 | -8.02016 | 145.85494 | 33430 ft | 482 kts | 127° |
| 2026-04-25 15:21 | -8.04025 | 145.88159 | 32794 ft | 484 kts | 128° |
| 2026-04-25 15:22 | -8.06114 | 145.90869 | 32149 ft | 486 kts | 129° |
| 2026-04-25 15:22 | -8.08189 | 145.93513 | 31516 ft | 484 kts | 130° |
| 2026-04-25 15:22 | -8.10307 | 145.96186 | 30912 ft | 490 kts | 129° |
| 2026-04-25 15:22 | -8.12436 | 145.98893 | 30299 ft | 492 kts | 129° |
| 2026-04-25 15:23 | -8.14557 | 146.01612 | 29661 ft | 492 kts | 129° |
| 2026-04-25 15:23 | -8.16672 | 146.04332 | 28971 ft | 489 kts | 129° |
| 2026-04-25 15:23 | -8.18756 | 146.07035 | 28288 ft | 486 kts | 129° |
| 2026-04-25 15:23 | -8.20817 | 146.09721 | 27638 ft | 481 kts | 128° |
| 2026-04-25 15:24 | -8.22856 | 146.12387 | 27007 ft | 478 kts | 128° |
| 2026-04-25 15:24 | -8.24884 | 146.15037 | 26383 ft | 474 kts | 128° |
| 2026-04-25 15:24 | -8.26892 | 146.17653 | 25796 ft | 468 kts | 128° |
| 2026-04-25 15:24 | -8.28206 | 146.19372 | 25410 ft | 465 kts | 128° |
| 2026-04-25 15:25 | -8.30810 | 146.22776 | 24687 ft | 460 kts | 128° |
| 2026-04-25 15:25 | -8.32763 | 146.25320 | 24136 ft | 456 kts | 128° |
| 2026-04-25 15:25 | -8.34698 | 146.27838 | 23604 ft | 451 kts | 128° |
| 2026-04-25 15:25 | -8.36609 | 146.30322 | 23008 ft | 446 kts | 128° |
| 2026-04-25 15:26 | -8.38508 | 146.32791 | 22412 ft | 444 kts | 128° |
| 2026-04-25 15:26 | -8.40400 | 146.35256 | 21808 ft | 442 kts | 128° |
| 2026-04-25 15:26 | -8.42274 | 146.37700 | 21219 ft | 438 kts | 128° |
| 2026-04-25 15:26 | -8.44136 | 146.40124 | 20684 ft | 435 kts | 128° |
| 2026-04-25 15:27 | -8.45977 | 146.42525 | 20127 ft | 431 kts | 128° |
| 2026-04-25 15:27 | -8.47814 | 146.44924 | 19582 ft | 428 kts | 128° |
| 2026-04-25 15:27 | -8.51431 | 146.49636 | 18550 ft | 423 kts | 128° |
| 2026-04-25 15:28 | -8.53221 | 146.51979 | 18032 ft | 420 kts | 128° |
| 2026-04-25 15:28 | -8.54993 | 146.54297 | 17469 ft | 415 kts | 128° |
| 2026-04-25 15:28 | -8.56760 | 146.56604 | 16913 ft | 415 kts | 128° |
| 2026-04-25 15:28 | -8.58526 | 146.58905 | 16363 ft | 412 kts | 128° |
| 2026-04-25 15:29 | -8.60268 | 146.61182 | 15824 ft | 408 kts | 128° |
| 2026-04-25 15:29 | -8.61970 | 146.63408 | 15317 ft | 404 kts | 128° |
| 2026-04-25 15:29 | -8.63685 | 146.65653 | 14818 ft | 401 kts | 128° |
| 2026-04-25 15:29 | -8.65382 | 146.67871 | 14304 ft | 397 kts | 128° |
| 2026-04-25 15:30 | -8.67067 | 146.70072 | 13835 ft | 394 kts | 127° |
| 2026-04-25 15:30 | -8.68736 | 146.72254 | 13307 ft | 391 kts | 128° |
| 2026-04-25 15:30 | -8.70542 | 146.74291 | 12813 ft | 388 kts | 139° |
| 2026-04-25 15:30 | -8.72694 | 146.75906 | 12462 ft | 380 kts | 146° |
| 2026-04-25 15:31 | -8.74859 | 146.77350 | 12129 ft | 366 kts | 147° |
| 2026-04-25 15:31 | -8.76954 | 146.78721 | 11805 ft | 353 kts | 147° |
| 2026-04-25 15:31 | -8.78996 | 146.80057 | 11496 ft | 345 kts | 147° |
| 2026-04-25 15:31 | -8.80987 | 146.81366 | 11204 ft | 337 kts | 147° |
| 2026-04-25 15:32 | -8.82929 | 146.82649 | 10910 ft | 329 kts | 147° |
| 2026-04-25 15:32 | -8.84806 | 146.83888 | 10643 ft | 322 kts | 147° |
| 2026-04-25 15:32 | -8.86651 | 146.85103 | 10375 ft | 308 kts | 147° |
| 2026-04-25 15:33 | -8.90141 | 146.87412 | 9858 ft | 298 kts | 147° |
| 2026-04-25 15:33 | -8.91873 | 146.88556 | 9592 ft | 296 kts | 147° |
| 2026-04-25 15:33 | -8.93587 | 146.89690 | 9317 ft | 295 kts | 147° |
| 2026-04-25 15:33 | -8.95307 | 146.90828 | 8939 ft | 296 kts | 147° |
| 2026-04-25 15:34 | -8.97033 | 146.91973 | 8549 ft | 297 kts | 147° |
| 2026-04-25 15:34 | -8.98760 | 146.93114 | 8157 ft | 296 kts | 147° |
| 2026-04-25 15:34 | -9.00476 | 146.94249 | 7785 ft | 293 kts | 147° |
| 2026-04-25 15:34 | -9.01602 | 146.94993 | 7536 ft | 291 kts | 147° |
| 2026-04-25 15:35 | -9.05553 | 146.97599 | 6742 ft | 288 kts | 147° |
| 2026-04-25 15:35 | -9.07219 | 146.98704 | 6449 ft | 285 kts | 146° |
| 2026-04-25 15:35 | -9.08867 | 146.99804 | 6141 ft | 282 kts | 147° |
| 2026-04-25 15:36 | -9.12072 | 147.01923 | 5537 ft | 274 kts | 146° |
| 2026-04-25 15:36 | -9.13661 | 147.02978 | 5233 ft | 272 kts | 146° |
| 2026-04-25 15:36 | -9.15241 | 147.04019 | 4954 ft | 271 kts | 147° |
| 2026-04-25 15:37 | -9.16813 | 147.05047 | 4653 ft | 264 kts | 146° |
| 2026-04-25 15:37 | -9.18304 | 147.06051 | 4370 ft | 256 kts | 146° |
| 2026-04-25 15:37 | -9.19810 | 147.06996 | 4094 ft | 251 kts | 145° |
| 2026-04-25 15:37 | -9.21271 | 147.07914 | 3813 ft | 243 kts | 145° |
| 2026-04-25 15:38 | -9.22666 | 147.08784 | 3536 ft | 229 kts | 147° |
| 2026-04-25 15:38 | -9.23981 | 147.09594 | 3281 ft | 215 kts | 146° |
| 2026-04-25 15:38 | -9.25229 | 147.10359 | 3084 ft | 205 kts | 146° |
| 2026-04-25 15:38 | -9.26406 | 147.11082 | 2855 ft | 194 kts | 145° |
| 2026-04-25 15:39 | -9.27566 | 147.11795 | 2649 ft | 196 kts | 147° |
| 2026-04-25 15:39 | -9.28714 | 147.12512 | 2613 ft | 194 kts | 146° |
| 2026-04-25 15:39 | -9.29845 | 147.13217 | 2608 ft | 188 kts | 147° |
| 2026-04-25 15:39 | -9.30934 | 147.13896 | 2567 ft | 183 kts | 146° |
| 2026-04-25 15:40 | -9.31683 | 147.14358 | 2608 ft | 186 kts | 147° |
| 2026-04-25 15:40 | -9.32416 | 147.14805 | 2518 ft | 187 kts | 148° |
| 2026-04-25 15:40 | -9.34288 | 147.15948 | 2136 ft | 188 kts | 147° |
| 2026-04-25 15:40 | -9.35374 | 147.16609 | 1904 ft | 176 kts | 147° |
| 2026-04-25 15:41 | -9.36398 | 147.17239 | 1670 ft | 169 kts | 148° |
| 2026-04-25 15:41 | -9.37373 | 147.17844 | 1434 ft | 159 kts | 148° |
| 2026-04-25 15:41 | -9.38264 | 147.18407 | 1202 ft | 142 kts | 149° |
| 2026-04-25 15:41 | -9.39084 | 147.18912 | 979 ft | 134 kts | 148° |
| 2026-04-25 15:42 | -9.39862 | 147.19389 | 834 ft | 130 kts | 150° |
| 2026-04-25 15:42 | -9.40655 | 147.19852 | 779 ft | 135 kts | 146° |
| 2026-04-25 15:42 | -9.41413 | 147.20398 | 660 ft | 134 kts | 144° |
| 2026-04-25 15:42 | -9.42201 | 147.20879 | 483 ft | 130 kts | 152° |
| 2026-04-25 15:43 | -9.42966 | 147.21345 | 210 ft | 128 kts | 149° |
| 2026-04-25 15:43 | -9.43696 | 147.21775 | 109 ft | 100 kts | 150° |
| 2026-04-25 15:43 | -9.44124 | 147.22028 | 116 ft | 42 kts | 152° |
| 2026-04-25 15:43 | -9.44222 | 147.22090 | 118 ft | 7 kts | 146° |
| 2026-04-25 15:44 | -9.44270 | 147.22121 | 112 ft | 9 kts | 147° |
| 2026-04-25 15:44 | -9.44330 | 147.22158 | 115 ft | 13 kts | 149° |
| 2026-04-25 15:44 | -9.44414 | 147.22209 | 110 ft | 15 kts | 150° |
| 2026-04-25 15:44 | -9.44485 | 147.22178 | 116 ft | 13 kts | 252° |
| 2026-04-25 15:45 | -9.44532 | 147.22112 | 105 ft | 12 kts | 232° |
| 2026-04-25 15:45 | -9.44583 | 147.22042 | 108 ft | 13 kts | 234° |
| 2026-04-25 15:45 | -9.44629 | 147.21962 | 106 ft | 14 kts | 239° |
| 2026-04-25 15:45 | -9.44643 | 147.21934 | 112 ft | 12 kts | 253° |
| 2026-04-25 15:46 | -9.44566 | 147.21846 | 105 ft | 11 kts | 328° |
| 2026-04-25 15:46 | -9.44495 | 147.21801 | 109 ft | 13 kts | 328° |
| 2026-04-25 15:46 | -9.44415 | 147.21751 | 115 ft | 14 kts | 327° |
| 2026-04-25 15:46 | -9.44328 | 147.21696 | 110 ft | 15 kts | 328° |
| 2026-04-25 15:47 | -9.44232 | 147.21636 | 110 ft | 17 kts | 328° |
| 2026-04-25 15:47 | -9.44127 | 147.21571 | 111 ft | 18 kts | 328° |
| 2026-04-25 15:47 | -9.44016 | 147.21505 | 107 ft | 19 kts | 328° |
| 2026-04-25 15:47 | -9.43903 | 147.21435 | 110 ft | 19 kts | 328° |
| 2026-04-25 15:48 | -9.43860 | 147.21335 | 110 ft | 15 kts | 247° |
| 2026-04-25 15:48 | -9.43900 | 147.21263 | 116 ft | 8 kts | 239° |
| 2026-04-25 15:48 | -9.43907 | 147.21252 | 116 ft | 0 kts | 239° |